Time;durP1;ratioP1;P1;durP2;ratioP2;P2;SDS_P1;SDS_P2;PMS_P1;PMS_P2;Temp;Humidity;BMP_temperature;BMP_pressure;BME280_temperature;BME280_humidity;BME280_pressure;Samples;Min_cycle;Max_cycle;Signal;HPM_P1;HPM_P2
2021/09/04 00:02:05;;;;;;;5.33;4.83;;;;;;;15.67;69.59;99231.28;1733282;81;21037;-70
2021/09/04 00:04:32;;;;;;;7.87;4.87;;;;;;;15.64;69.92;99246.22;1760651;81;21541;-74
2021/09/04 00:07:00;;;;;;;6.15;4.35;;;;;;;15.61;70.29;99254.95;1758405;81;20898;-73
2021/09/04 00:09:27;;;;;;;7.22;4.10;;;;;;;15.57;70.63;99247.16;1731332;81;20994;-74
2021/09/04 00:11:55;;;;;;;4.75;4.28;;;;;;;15.53;70.95;99244.77;1713511;83;21045;-72
2021/09/04 00:14:21;;;;;;;6.12;4.50;;;;;;;15.53;71.05;99243.97;1712336;83;21461;-76
2021/09/04 00:16:49;;;;;;;7.42;4.50;;;;;;;15.54;71.27;99239.59;1712674;83;21018;-72
2021/09/04 00:19:17;;;;;;;8.65;5.90;;;;;;;15.55;71.41;99247.98;1715042;82;21007;-78
2021/09/04 00:21:45;;;;;;;7.12;5.75;;;;;;;15.56;71.49;99255.02;1722278;82;20967;-73
2021/09/04 00:24:12;;;;;;;7.50;4.55;;;;;;;15.55;71.58;99253.41;1708277;81;21519;-69
2021/09/04 00:26:38;;;;;;;6.15;5.00;;;;;;;15.54;71.76;99257.78;1712400;83;21018;-69
2021/09/04 00:29:06;;;;;;;6.65;4.87;;;;;;;15.48;72.15;99269.20;1725621;82;21015;-69
2021/09/04 00:31:32;;;;;;;6.55;5.17;;;;;;;15.43;72.23;99271.98;1736596;82;21093;-69
2021/09/04 00:33:59;;;;;;;6.10;4.90;;;;;;;15.37;72.53;99271.78;1713571;82;21585;-69
2021/09/04 00:36:25;;;;;;;7.58;5.17;;;;;;;15.32;72.74;99271.86;1713697;83;21003;-69
2021/09/04 00:38:51;;;;;;;8.93;5.90;;;;;;;15.26;73.06;99259.46;1696223;83;20978;-71
2021/09/04 00:41:21;;;;;;;8.50;5.35;;;;;;;15.23;73.17;99264.12;1712855;82;21022;-70
2021/09/04 00:43:49;;;;;;;9.68;6.03;;;;;;;15.22;73.43;99262.50;1712079;83;21216;-70
2021/09/04 00:46:16;;;;;;;7.83;5.12;;;;;;;15.18;73.66;99268.24;1712188;83;20907;-68
2021/09/04 00:48:43;;;;;;;6.58;5.00;;;;;;;15.13;73.91;99270.47;1696578;82;20926;-71
2021/09/04 00:51:10;;;;;;;6.15;5.08;;;;;;;15.09;74.16;99274.86;1740487;82;21476;-70
2021/09/04 00:53:37;;;;;;;6.92;5.12;;;;;;;15.05;74.48;99274.38;1741784;82;21023;-70
2021/09/04 00:56:05;;;;;;;7.92;5.47;;;;;;;15.01;74.67;99266.57;1741992;82;21204;-71
2021/09/04 00:58:33;;;;;;;13.45;5.37;;;;;;;15.00;74.80;99252.77;1722068;82;21054;-69
2021/09/04 01:00:59;;;;;;;7.62;5.75;;;;;;;14.99;74.93;99248.44;1714419;82;21050;-69
2021/09/04 01:03:28;;;;;;;7.67;5.60;;;;;;;14.99;75.07;99251.14;1725475;82;20955;-68
2021/09/04 01:05:55;;;;;;;6.65;5.53;;;;;;;14.99;75.21;99269.55;1710252;84;21499;-77
2021/09/04 01:08:23;;;;;;;6.95;4.50;;;;;;;15.00;75.23;99270.37;1710301;83;21017;-69
2021/09/04 01:10:52;;;;;;;7.17;5.45;;;;;;;14.99;75.35;99261.98;1703327;84;21575;-72
2021/09/04 01:13:20;;;;;;;8.90;5.45;;;;;;;14.95;75.51;99267.72;1686346;84;21569;-72
2021/09/04 01:15:47;;;;;;;7.53;5.33;;;;;;;14.89;75.69;99265.61;1722542;82;20995;-70
2021/09/04 01:18:14;;;;;;;8.95;5.35;;;;;;;14.85;75.94;99268.64;1742654;81;21035;-70
2021/09/04 01:20:41;;;;;;;5.33;4.37;;;;;;;14.83;76.15;99269.46;1765092;81;21016;-72
2021/09/04 01:23:08;;;;;;;8.85;5.58;;;;;;;14.83;76.42;99267.56;1765474;81;20963;-71
2021/09/04 01:25:34;;;;;;;6.50;4.90;;;;;;;14.83;76.58;99276.23;1743765;81;21043;-70
2021/09/04 01:28:03;;;;;;;5.95;4.83;;;;;;;14.86;76.70;99280.28;1765589;81;21008;-69
2021/09/04 01:30:29;;;;;;;8.10;5.58;;;;;;;14.86;76.79;99282.98;1764868;81;21003;-70
2021/09/04 01:32:55;;;;;;;9.83;6.28;;;;;;;14.84;76.83;99280.02;1743326;81;20996;-71
2021/09/04 01:35:25;;;;;;;6.83;5.20;;;;;;;14.82;76.98;99281.38;1689087;82;20947;-71
2021/09/04 01:37:51;;;;;;;7.47;5.30;;;;;;;14.79;77.15;99289.55;1737975;81;20983;-71
2021/09/04 01:40:18;;;;;;;6.22;4.70;;;;;;;14.79;77.29;99296.31;1710118;83;21025;-70
2021/09/04 01:42:46;;;;;;;5.05;4.03;;;;;;;14.75;77.36;99296.62;1708247;84;21537;-71
2021/09/04 01:45:13;;;;;;;5.72;5.05;;;;;;;14.74;77.47;99298.27;1696203;84;21258;-70
2021/09/04 01:47:39;;;;;;;4.75;3.87;;;;;;;14.74;77.41;99308.55;1715718;81;21655;-70
2021/09/04 01:50:13;;;;;;;4.47;3.37;;;;;;;14.69;77.22;99305.08;1735232;82;20928;-70
2021/09/04 01:52:37;;;;;;;4.10;3.35;;;;;;;14.68;77.25;99304.81;1734362;81;21595;-70
2021/09/04 01:55:06;;;;;;;3.87;3.02;;;;;;;14.59;76.76;99301.92;1735336;81;20987;-71
2021/09/04 01:57:32;;;;;;;5.37;3.65;;;;;;;14.53;76.78;99295.52;1735473;81;21551;-70
2021/09/04 01:59:59;;;;;;;4.75;3.20;;;;;;;14.49;76.73;99295.25;1733061;82;21007;-70
2021/09/04 02:02:25;;;;;;;2.55;2.12;;;;;;;14.46;76.45;99285.55;1731279;82;21517;-71
2021/09/04 02:04:52;;;;;;;3.47;2.80;;;;;;;14.42;76.65;99292.09;1731156;82;21036;-72
2021/09/04 02:07:18;;;;;;;3.70;2.52;;;;;;;14.36;76.24;99287.80;1732024;81;21542;-70
2021/09/04 02:09:46;;;;;;;2.70;2.08;;;;;;;14.32;76.08;99284.84;1761129;81;21063;-69
2021/09/04 02:12:12;;;;;;;2.50;2.30;;;;;;;14.30;76.09;99288.36;1746261;81;20957;-70
2021/09/04 02:14:40;;;;;;;3.62;2.67;;;;;;;14.25;76.25;99289.75;1761416;81;20964;-72
2021/09/04 02:17:07;;;;;;;3.33;2.55;;;;;;;14.16;76.56;99298.21;1747885;81;20988;-71
2021/09/04 02:19:35;;;;;;;2.90;1.90;;;;;;;14.11;76.75;99302.84;1731163;82;21580;-72
2021/09/04 02:22:03;;;;;;;2.25;2.00;;;;;;;14.10;76.84;99310.73;1732164;81;21045;-70
2021/09/04 02:24:29;;;;;;;3.02;2.33;;;;;;;14.06;77.20;99321.81;1731289;82;21052;-71
2021/09/04 02:26:58;;;;;;;2.72;2.37;;;;;;;13.95;77.86;99308.94;1742302;81;20945;-72
2021/09/04 02:29:24;;;;;;;2.55;2.15;;;;;;;13.90;77.86;99308.42;1761414;81;21013;-71
2021/09/04 02:31:52;;;;;;;12.13;5.20;;;;;;;13.92;77.96;99314.34;1761458;81;21554;-69
2021/09/04 02:34:18;;;;;;;2.42;2.22;;;;;;;13.88;78.16;99326.81;1745022;81;21168;-72
2021/09/04 02:36:47;;;;;;;2.58;2.05;;;;;;;13.81;78.57;99316.06;1739933;81;21471;-71
2021/09/04 02:39:13;;;;;;;2.45;1.87;;;;;;;13.77;78.28;99317.68;1746311;81;21474;-71
2021/09/04 02:41:42;;;;;;;6.47;2.70;;;;;;;13.68;78.60;99322.06;1760923;81;21565;-70
2021/09/04 02:44:10;;;;;;;2.08;1.65;;;;;;;13.60;78.85;99320.77;1761643;81;20981;-71
2021/09/04 02:46:37;;;;;;;2.02;1.82;;;;;;;13.54;79.39;99324.57;1745275;81;21871;-72
2021/09/04 02:49:04;;;;;;;2.87;1.92;;;;;;;13.48;79.83;99329.19;1759754;81;21494;-71
2021/09/04 02:51:31;;;;;;;6.47;1.90;;;;;;;13.41;80.11;99323.83;1745810;81;21023;-71
2021/09/04 02:53:58;;;;;;;3.27;1.80;;;;;;;13.32;80.70;99320.91;1759762;81;20977;-71
2021/09/04 02:56:24;;;;;;;3.87;2.00;;;;;;;13.26;81.09;99309.84;1734458;81;21473;-71
2021/09/04 02:58:52;;;;;;;2.85;2.40;;;;;;;13.17;81.88;99317.45;1749857;81;21136;-71
2021/09/04 03:01:19;;;;;;;2.02;1.82;;;;;;;13.08;82.28;99321.23;1735091;81;21083;-72
2021/09/04 03:03:47;;;;;;;1.50;1.40;;;;;;;13.06;82.50;99322.03;1735154;82;21015;-70
2021/09/04 03:06:15;;;;;;;2.12;1.80;;;;;;;13.01;82.82;99328.80;1735941;81;21007;-70
2021/09/04 03:08:44;;;;;;;2.37;1.92;;;;;;;12.94;83.18;99325.59;1714074;82;21049;-70
2021/09/04 03:11:12;;;;;;;2.47;1.62;;;;;;;12.92;83.06;99335.84;1735496;82;20975;-70
2021/09/04 03:13:39;;;;;;;2.35;1.87;;;;;;;12.85;82.54;99336.69;1735643;81;20999;-71
2021/09/04 03:16:08;;;;;;;3.22;1.80;;;;;;;12.80;82.10;99337.50;1747158;81;21065;-70
2021/09/04 03:18:37;;;;;;;2.05;1.57;;;;;;;12.78;80.96;99342.35;1735773;81;20899;-70
2021/09/04 03:21:03;;;;;;;2.02;1.70;;;;;;;12.78;80.53;99346.40;1714041;82;20933;-71
2021/09/04 03:23:30;;;;;;;2.15;1.77;;;;;;;12.78;80.11;99347.75;1735023;82;21960;-70
2021/09/04 03:25:58;;;;;;;1.70;1.57;;;;;;;12.78;79.69;99353.69;1735264;82;20935;-70
2021/09/04 03:28:26;;;;;;;3.20;2.10;;;;;;;12.81;79.30;99367.44;1760646;81;21035;-69
2021/09/04 03:30:53;;;;;;;3.83;2.95;;;;;;;12.83;79.19;99367.17;1747333;81;26406;-70
2021/09/04 03:33:20;;;;;;;8.28;3.20;;;;;;;12.84;79.00;99369.61;1735290;82;22196;-70
2021/09/04 03:35:47;;;;;;;6.78;3.87;;;;;;;12.80;79.08;99373.94;1716459;82;21932;-71
2021/09/04 03:38:14;;;;;;;9.28;5.05;;;;;;;12.82;79.09;99381.73;1736451;81;20922;-71
2021/09/04 03:40:40;;;;;;;6.92;2.67;;;;;;;12.83;78.99;99380.66;1756016;81;21070;-70
2021/09/04 03:43:06;;;;;;;8.50;4.08;;;;;;;12.84;78.82;99379.05;1725572;81;21051;-70
2021/09/04 03:45:35;;;;;;;8.28;3.80;;;;;;;12.84;78.83;99377.70;1760857;81;21012;-71
2021/09/04 03:48:04;;;;;;;7.37;3.35;;;;;;;12.81;78.81;99387.67;1764766;81;21074;-71
2021/09/04 03:50:32;;;;;;;6.90;2.95;;;;;;;12.80;78.78;99386.08;1760166;81;20998;-70
2021/09/04 03:52:59;;;;;;;7.25;3.52;;;;;;;12.83;78.74;99384.17;1738994;81;21121;-70
2021/09/04 03:55:27;;;;;;;5.42;2.95;;;;;;;12.76;78.72;99393.08;1743753;81;21031;-71
2021/09/04 03:57:54;;;;;;;4.90;2.05;;;;;;;12.74;78.70;99405.23;1760174;81;21520;-72
2021/09/04 04:00:21;;;;;;;4.10;2.60;;;;;;;12.76;78.60;99408.48;1761186;81;21208;-71
2021/09/04 04:02:49;;;;;;;3.85;2.50;;;;;;;12.74;78.39;99416.84;1710265;82;21046;-70
2021/09/04 04:05:18;;;;;;;5.70;2.75;;;;;;;12.71;78.52;99418.71;1703866;82;21565;-70
2021/09/04 04:07:44;;;;;;;8.25;3.30;;;;;;;12.70;78.71;99409.56;1687476;84;21025;-70
2021/09/04 04:10:12;;;;;;;3.55;2.20;;;;;;;12.66;78.71;99414.13;1710235;84;21049;-69
2021/09/04 04:12:41;;;;;;;4.60;2.10;;;;;;;12.62;78.51;99414.94;1693076;82;21244;-71
2021/09/04 04:15:09;;;;;;;4.72;2.27;;;;;;;12.64;78.32;99420.34;1710018;84;21058;-70
2021/09/04 04:17:37;;;;;;;5.62;1.80;;;;;;;12.62;77.70;99437.34;1726770;81;20983;-71
2021/09/04 04:20:07;;;;;;;2.20;1.40;;;;;;;12.63;77.69;99447.59;1764702;81;21023;-71
2021/09/04 04:22:34;;;;;;;3.50;2.05;;;;;;;12.62;77.30;99441.92;1765237;81;21007;-70
2021/09/04 04:25:00;;;;;;;4.00;1.70;;;;;;;12.59;77.24;99447.33;1765425;81;21927;-72
2021/09/04 04:27:27;;;;;;;4.95;3.30;;;;;;;12.55;77.09;99458.39;1732648;82;20987;-70
2021/09/04 04:29:55;;;;;;;3.47;1.98;;;;;;;12.55;76.94;99468.36;1738118;81;21004;-71
2021/09/04 04:32:22;;;;;;;2.50;1.57;;;;;;;12.56;76.97;99465.41;1763521;81;22497;-71
2021/09/04 04:34:48;;;;;;;3.27;2.00;;;;;;;12.60;76.98;99453.00;1740876;81;21016;-71
2021/09/04 04:37:19;;;;;;;4.60;2.47;;;;;;;12.63;76.85;99463.24;1759838;81;20931;-71
2021/09/04 04:39:45;;;;;;;3.17;1.85;;;;;;;12.65;76.87;99473.24;1713813;82;20943;-71
2021/09/04 04:42:13;;;;;;;2.25;1.77;;;;;;;12.69;76.75;99477.55;1752848;81;22038;-70
2021/09/04 04:44:40;;;;;;;2.60;1.70;;;;;;;12.69;76.81;99476.20;1709778;82;21049;-69
2021/09/04 04:47:08;;;;;;;4.55;2.00;;;;;;;12.72;76.81;99481.59;1727733;81;20987;-68
2021/09/04 04:49:37;;;;;;;6.05;3.77;;;;;;;12.76;76.81;99482.70;1765095;81;21045;-71
2021/09/04 04:52:04;;;;;;;4.58;2.42;;;;;;;12.78;76.77;99490.78;1639716;81;21097;-71
2021/09/04 04:54:31;;;;;;;3.83;2.58;;;;;;;12.75;76.92;99491.33;1633765;86;20967;-70
2021/09/04 04:56:58;;;;;;;3.67;2.22;;;;;;;12.75;77.13;99504.82;1654455;86;21579;-76
2021/09/04 04:59:26;;;;;;;3.55;2.08;;;;;;;12.75;77.34;99498.61;1668148;85;21061;-74
2021/09/04 05:01:53;;;;;;;3.52;2.42;;;;;;;12.73;77.54;99499.41;1641321;87;20993;-74
2021/09/04 05:04:20;;;;;;;3.33;2.15;;;;;;;12.71;77.95;99501.02;1642959;86;21052;-75
2021/09/04 05:06:47;;;;;;;4.67;1.98;;;;;;;12.73;78.20;99508.84;1614289;86;21011;-75
2021/09/04 05:09:14;;;;;;;3.12;2.22;;;;;;;12.70;78.44;99510.21;1676583;85;21540;-75
2021/09/04 05:11:41;;;;;;;2.70;1.90;;;;;;;12.70;78.57;99512.91;1656504;85;21006;-77
2021/09/04 05:14:09;;;;;;;3.33;1.72;;;;;;;12.61;79.07;99515.87;1656607;85;21114;-75
2021/09/04 05:16:37;;;;;;;6.40;2.70;;;;;;;12.59;79.24;99524.22;1654713;85;20967;-77
2021/09/04 05:19:04;;;;;;;5.72;2.50;;;;;;;12.55;79.57;99525.02;1660367;85;21053;-74
2021/09/04 05:21:31;;;;;;;2.98;1.72;;;;;;;12.55;79.76;99533.11;1657346;85;21512;-74
2021/09/04 05:23:58;;;;;;;3.70;2.90;;;;;;;12.59;79.96;99530.96;1663850;85;21043;-75
2021/09/04 05:26:25;;;;;;;2.22;1.75;;;;;;;12.64;79.94;99529.63;1654375;85;21237;-74
2021/09/04 05:28:51;;;;;;;2.70;2.45;;;;;;;12.66;79.88;99534.77;1677444;85;21633;-75
2021/09/04 05:31:18;;;;;;;2.95;2.60;;;;;;;12.63;79.91;99540.14;1671416;85;21107;-75
2021/09/04 05:33:44;;;;;;;4.22;2.67;;;;;;;12.62;80.28;99539.05;1673339;85;21094;-75
2021/09/04 05:36:10;;;;;;;3.87;2.22;;;;;;;12.58;80.61;99540.12;1682267;85;21516;-76
2021/09/04 05:38:38;;;;;;;4.85;2.60;;;;;;;12.60;80.66;99548.78;1679938;85;21159;-72
2021/09/04 05:41:06;;;;;;;8.30;2.33;;;;;;;12.66;80.59;99547.69;1673311;85;20948;-72
2021/09/04 05:43:32;;;;;;;6.08;2.80;;;;;;;12.72;80.44;99549.86;1654660;86;21130;-72
2021/09/04 05:45:59;;;;;;;3.72;2.25;;;;;;;12.76;80.28;99554.21;1662175;85;21374;-72
2021/09/04 05:48:26;;;;;;;3.50;2.42;;;;;;;12.70;80.45;99546.64;1642383;86;21567;-72
2021/09/04 05:50:52;;;;;;;3.08;2.10;;;;;;;12.69;80.50;99550.41;1668108;85;21035;-71
2021/09/04 05:53:18;;;;;;;5.22;2.45;;;;;;;12.71;80.46;99565.78;1671611;85;21055;-70
2021/09/04 05:55:45;;;;;;;5.65;2.62;;;;;;;12.72;80.59;99566.05;1655782;85;21122;-70
2021/09/04 05:58:11;;;;;;;3.35;2.60;;;;;;;12.68;80.57;99568.48;1656804;85;21469;-70
2021/09/04 06:00:37;;;;;;;7.22;3.00;;;;;;;12.72;80.54;99576.03;1646690;86;20981;-71
2021/09/04 06:03:04;;;;;;;4.80;2.15;;;;;;;12.61;80.87;99576.00;1654616;86;21089;-70
2021/09/04 06:05:31;;;;;;;3.27;1.98;;;;;;;12.63;81.02;99575.75;1653103;85;21019;-69
2021/09/04 06:07:58;;;;;;;3.47;2.02;;;;;;;12.67;80.83;99579.00;1668725;84;21134;-71
2021/09/04 06:10:26;;;;;;;8.03;2.37;;;;;;;12.71;80.58;99573.09;1676821;85;21116;-70
2021/09/04 06:12:52;;;;;;;3.25;2.45;;;;;;;12.75;80.32;99569.59;1653839;85;21047;-70
2021/09/04 06:15:18;;;;;;;4.30;2.30;;;;;;;12.83;79.97;99569.05;1668846;85;21803;-71
2021/09/04 06:17:46;;;;;;;3.12;2.02;;;;;;;12.93;79.75;99581.22;1654639;86;20994;-71
2021/09/04 06:20:14;;;;;;;4.40;2.87;;;;;;;13.03;78.97;99575.84;1671109;85;21026;-72
2021/09/04 06:22:41;;;;;;;3.90;3.08;;;;;;;13.13;78.09;99578.30;1657554;85;21578;-71
2021/09/04 06:25:09;;;;;;;1.70;1.60;;;;;;;13.20;76.66;99581.53;1656204;85;21042;-71
2021/09/04 06:27:36;;;;;;;1.90;1.70;;;;;;;13.17;74.63;99583.44;1675024;85;21138;-71
2021/09/04 06:30:05;;;;;;;7.08;5.20;;;;;;;13.22;74.11;99586.95;1665406;85;22263;-72
2021/09/04 06:32:32;;;;;;;5.10;3.45;;;;;;;13.25;73.88;99595.05;1672924;85;21083;-72
2021/09/04 06:34:58;;;;;;;2.55;2.00;;;;;;;13.30;73.63;99593.70;1659673;85;21196;-74
2021/09/04 06:37:24;;;;;;;2.20;1.55;;;;;;;13.33;72.56;99598.58;1651780;85;21043;-71
2021/09/04 06:39:51;;;;;;;3.15;1.80;;;;;;;13.38;72.28;99605.33;1682110;85;21204;-73
2021/09/04 06:42:18;;;;;;;2.30;1.50;;;;;;;13.42;71.57;99615.33;1663659;85;21079;-71
2021/09/04 06:44:44;;;;;;;3.25;2.35;;;;;;;13.43;70.80;99612.06;1653779;85;21110;-71
2021/09/04 06:47:12;;;;;;;7.17;1.82;;;;;;;13.39;68.33;99613.69;1676233;85;20947;-68
2021/09/04 06:49:40;;;;;;;1.60;1.45;;;;;;;13.35;68.61;99616.66;1654282;86;21066;-70
2021/09/04 06:52:06;;;;;;;2.00;1.40;;;;;;;13.40;69.25;99613.96;1674511;85;21820;-72
2021/09/04 06:54:34;;;;;;;4.12;1.85;;;;;;;13.44;68.42;99617.73;1671386;85;20968;-70
2021/09/04 06:57:02;;;;;;;4.08;1.75;;;;;;;13.48;68.35;99620.98;1667421;85;21015;-69
2021/09/04 06:59:29;;;;;;;3.25;1.77;;;;;;;13.52;68.00;99627.45;1661423;85;21070;-69
2021/09/04 07:01:56;;;;;;;2.50;1.32;;;;;;;13.52;67.98;99629.38;1669458;85;21087;-69
2021/09/04 07:04:22;;;;;;;1.25;1.15;;;;;;;13.52;68.12;99626.11;1675412;85;21572;-68
2021/09/04 07:06:49;;;;;;;1.75;1.22;;;;;;;13.53;66.99;99633.14;1674247;84;20948;-71
2021/09/04 07:09:16;;;;;;;2.15;1.62;;;;;;;13.53;66.15;99628.27;1628971;87;21070;-69
2021/09/04 07:11:42;;;;;;;2.10;1.98;;;;;;;13.54;65.82;99638.82;1632744;85;21083;-75
2021/09/04 07:14:10;;;;;;;3.92;1.37;;;;;;;13.52;64.99;99642.89;1615919;88;21053;-79
2021/09/04 07:16:37;;;;;;;1.70;1.42;;;;;;;13.51;65.39;99639.91;1650478;85;21981;-83
2021/09/04 07:19:05;;;;;;;1.22;1.02;;;;;;;13.47;63.89;99645.59;1652384;85;20999;-74
2021/09/04 07:21:32;;;;;;;1.77;1.65;;;;;;;13.47;64.15;99650.45;1642066;87;21092;-77
2021/09/04 07:23:58;;;;;;;1.62;1.02;;;;;;;13.51;63.54;99642.61;1669938;85;20963;-78
2021/09/04 07:26:24;;;;;;;1.77;1.55;;;;;;;13.60;64.08;99653.15;1670827;85;20955;-75
2021/09/04 07:28:51;;;;;;;1.87;1.30;;;;;;;13.68;63.85;99647.73;1652822;85;21111;-72
2021/09/04 07:31:17;;;;;;;6.85;1.77;;;;;;;13.71;63.94;99643.16;1673356;85;21023;-71
2021/09/04 07:33:45;;;;;;;1.67;1.47;;;;;;;13.75;64.10;99645.04;1651029;85;21105;-71
2021/09/04 07:36:11;;;;;;;1.80;1.30;;;;;;;13.81;63.94;99633.11;1666171;85;21103;-72
2021/09/04 07:38:39;;;;;;;1.40;1.27;;;;;;;13.88;63.31;99647.72;1653896;85;21114;-70
2021/09/04 07:41:05;;;;;;;2.27;1.45;;;;;;;13.92;63.09;99644.73;1675873;85;21815;-72
2021/09/04 07:43:32;;;;;;;4.17;1.57;;;;;;;14.00;63.05;99651.50;1655984;85;20979;-72
2021/09/04 07:45:58;;;;;;;1.27;1.17;;;;;;;14.08;63.18;99657.70;1663289;85;21015;-72
2021/09/04 07:48:25;;;;;;;6.80;1.92;;;;;;;14.13;63.05;99659.04;1653973;85;21004;-72
2021/09/04 07:50:54;;;;;;;5.78;1.57;;;;;;;14.15;63.20;99654.18;1675574;85;21027;-72
2021/09/04 07:53:21;;;;;;;1.45;1.22;;;;;;;14.17;62.46;99662.81;1646298;86;21384;-72
2021/09/04 07:55:47;;;;;;;1.10;1.00;;;;;;;14.21;59.83;99649.00;1617251;87;22164;-71
2021/09/04 07:58:14;;;;;;;1.62;1.42;;;;;;;14.25;59.56;99641.95;1600280;88;21046;-73
2021/09/04 08:00:41;;;;;;;1.10;1.00;;;;;;;14.32;59.95;99641.14;1600265;89;21562;-73
2021/09/04 08:03:07;;;;;;;1.80;1.00;;;;;;;14.43;60.10;99666.30;1615431;88;21577;-72
2021/09/04 08:05:33;;;;;;;3.37;0.93;;;;;;;14.44;57.03;99674.67;1626105;88;21159;-72
2021/09/04 08:08:01;;;;;;;0.98;0.93;;;;;;;14.38;56.32;99688.78;1625920;87;21067;-71
2021/09/04 08:10:27;;;;;;;1.35;1.25;;;;;;;14.33;56.96;99678.75;1626156;87;21619;-72
2021/09/04 08:12:54;;;;;;;2.25;1.00;;;;;;;14.34;56.97;99680.89;1614636;87;21024;-73
2021/09/04 08:15:20;;;;;;;0.70;0.70;;;;;;;14.37;57.15;99681.74;1600279;89;21076;-72
2021/09/04 08:17:47;;;;;;;1.75;1.40;;;;;;;14.40;56.04;99673.87;1600408;89;21158;-72
2021/09/04 08:20:14;;;;;;;1.42;1.05;;;;;;;14.43;54.69;99669.02;1600344;89;21578;-72
2021/09/04 08:22:40;;;;;;;2.75;1.20;;;;;;;14.49;54.67;99661.94;1615680;87;21049;-74
2021/09/04 08:25:08;;;;;;;1.05;0.80;;;;;;;14.52;54.22;99676.83;1626210;88;21083;-75
2021/09/04 08:27:34;;;;;;;2.12;1.42;;;;;;;14.56;53.94;99667.06;1626643;86;21068;-74
2021/09/04 08:30:00;;;;;;;1.45;1.00;;;;;;;14.54;52.70;99674.09;1626365;86;21331;-72
2021/09/04 08:32:27;;;;;;;3.98;1.17;;;;;;;14.57;52.52;99668.69;1627724;87;21016;-72
2021/09/04 08:34:53;;;;;;;1.00;0.90;;;;;;;14.62;52.06;99669.48;1585645;89;21134;-72
2021/09/04 08:37:19;;;;;;;2.05;1.42;;;;;;;14.71;51.02;99670.53;1600469;89;21081;-71
2021/09/04 08:39:46;;;;;;;1.37;1.12;;;;;;;14.79;49.69;99663.17;1585864;89;21093;-72
2021/09/04 08:42:12;;;;;;;1.20;0.90;;;;;;;14.88;50.17;99672.06;1614545;88;21421;-72
2021/09/04 08:44:39;;;;;;;1.15;0.80;;;;;;;14.95;49.81;99669.33;1632889;87;21107;-71
2021/09/04 08:47:06;;;;;;;1.57;1.02;;;;;;;14.97;48.69;99669.03;1626214;86;21579;-71
2021/09/04 08:49:37;;;;;;;1.52;1.12;;;;;;;14.97;49.74;99667.14;1626346;86;21082;-72
2021/09/04 08:52:06;;;;;;;1.47;1.27;;;;;;;15.00;49.48;99661.18;1632508;86;21028;-71
2021/09/04 08:54:32;;;;;;;1.92;1.10;;;;;;;15.01;49.39;99660.07;1623352;88;21885;-73
2021/09/04 08:56:59;;;;;;;1.00;0.90;;;;;;;15.06;49.22;99656.55;1623469;88;20941;-72
2021/09/04 08:59:26;;;;;;;1.17;1.07;;;;;;;15.12;48.41;99658.94;1623427;88;21541;-73
2021/09/04 09:01:52;;;;;;;1.47;0.90;;;;;;;15.14;47.15;99660.83;1624037;87;21128;-72
2021/09/04 09:04:22;;;;;;;1.15;0.80;;;;;;;15.14;47.33;99668.14;1627319;87;20994;-73
2021/09/04 09:06:49;;;;;;;2.12;1.40;;;;;;;15.17;47.17;99666.22;1627507;87;22306;-72
2021/09/04 09:09:17;;;;;;;3.15;0.93;;;;;;;15.19;47.77;99666.76;1648814;87;21006;-73
2021/09/04 09:11:46;;;;;;;1.82;1.30;;;;;;;15.16;47.26;99671.36;1627396;87;21094;-72
2021/09/04 09:14:12;;;;;;;1.17;1.07;;;;;;;15.10;47.03;99677.38;1648325;87;21113;-73
2021/09/04 09:16:56;;;;;;;1.10;0.98;;;;;;;15.13;46.18;99680.87;1626395;87;21110;-74
2021/09/04 09:19:32;;;;;;;1.10;0.90;;;;;;;15.14;45.94;99687.92;1626188;87;21838;-72
2021/09/04 09:21:58;;;;;;;2.67;1.05;;;;;;;15.16;45.63;99676.23;1649126;87;20987;-73
2021/09/04 09:24:28;;;;;;;1.67;1.30;;;;;;;15.21;45.36;99666.73;1606076;87;21015;-72
2021/09/04 09:27:02;;;;;;;3.45;1.57;;;;;;;15.35;46.16;99679.67;1625373;87;21115;-71
2021/09/04 09:29:34;;;;;;;1.17;0.90;;;;;;;15.43;43.87;99674.45;1650135;87;21091;-71
2021/09/04 09:32:06;;;;;;;1.05;0.93;;;;;;;15.48;43.65;99660.06;1649421;87;21144;-72
2021/09/04 09:34:43;;;;;;;3.62;1.30;;;;;;;15.38;44.14;99681.81;1649651;87;21055;-72
2021/09/04 09:37:12;;;;;;;1.25;0.90;;;;;;;15.20;45.07;99693.55;1626034;87;20976;-72
2021/09/04 09:39:41;;;;;;;1.00;1.00;;;;;;;15.19;45.86;99682.47;1623752;88;22192;-72
2021/09/04 09:42:12;;;;;;;1.50;1.10;;;;;;;15.28;46.03;99684.04;1623488;88;21028;-73
2021/09/04 09:44:39;;;;;;;1.37;1.10;;;;;;;15.36;45.85;99682.63;1623509;88;21906;-71
2021/09/04 09:47:09;;;;;;;0.82;0.80;;;;;;;15.36;46.53;99694.28;1646585;87;20963;-72
2021/09/04 09:49:43;;;;;;;0.90;0.90;;;;;;;15.36;46.66;99688.85;1650244;87;21050;-71
2021/09/04 09:52:12;;;;;;;1.02;0.93;;;;;;;15.36;46.71;99689.40;1650526;85;20999;-71
2021/09/04 09:54:39;;;;;;;1.10;1.00;;;;;;;15.40;46.63;99702.11;1651311;86;21048;-70
2021/09/04 09:57:09;;;;;;;1.20;0.93;;;;;;;15.48;45.38;99696.11;1629569;86;21084;-71
2021/09/04 09:59:36;;;;;;;5.22;1.17;;;;;;;15.55;45.91;99703.94;1624865;88;21075;-73
2021/09/04 10:02:08;;;;;;;1.72;1.40;;;;;;;15.61;45.67;99698.20;1624832;88;21027;-72
2021/09/04 10:04:38;;;;;;;0.97;0.77;;;;;;;15.66;45.40;99696.81;1620652;88;21045;-72
2021/09/04 10:07:06;;;;;;;1.55;1.00;;;;;;;15.69;43.83;99703.02;1645837;86;22147;-72
2021/09/04 10:09:33;;;;;;;1.27;1.00;;;;;;;15.72;44.04;99698.95;1651649;86;21250;-73
2021/09/04 10:11:59;;;;;;;1.85;1.02;;;;;;;15.79;44.24;99708.09;1651299;86;21023;-73
2021/09/04 10:14:26;;;;;;;0.70;0.70;;;;;;;15.89;43.93;99725.64;1651504;86;21027;-71
2021/09/04 10:16:58;;;;;;;3.17;1.00;;;;;;;15.96;43.59;99716.10;1632815;86;21084;-72
2021/09/04 10:19:34;;;;;;;0.85;0.82;;;;;;;16.02;43.76;99712.23;1599368;88;21108;-72
2021/09/04 10:22:06;;;;;;;3.22;1.22;;;;;;;16.04;43.96;99706.53;1624764;88;21573;-72
2021/09/04 10:24:50;;;;;;;1.60;1.30;;;;;;;16.09;44.45;99727.65;1625067;88;21033;-72
2021/09/04 10:27:35;;;;;;;6.80;0.95;;;;;;;16.12;44.54;99719.47;1625421;86;20980;-71
2021/09/04 10:30:25;;;;;;;3.30;0.93;;;;;;;16.04;44.70;99718.73;1624166;88;21585;-72
2021/09/04 10:33:16;;;;;;;2.92;1.02;;;;;;;15.97;45.20;99719.05;1622160;88;21109;-71
2021/09/04 10:35:56;;;;;;;2.42;1.90;;;;;;;15.90;45.11;99731.34;1629921;86;21225;-74
2021/09/04 10:38:36;;;;;;;1.47;1.22;;;;;;;15.83;44.97;99722.16;1651377;86;20974;-72
2021/09/04 10:41:23;;;;;;;3.90;1.15;;;;;;;15.86;44.67;99713.47;1625034;86;22221;-71
2021/09/04 10:43:57;;;;;;;1.45;0.98;;;;;;;15.91;44.75;99705.84;1650793;86;21564;-73
2021/09/04 10:46:23;;;;;;;1.12;1.02;;;;;;;15.95;43.21;99720.45;1639923;86;21099;-71
2021/09/04 10:48:59;;;;;;;1.42;1.02;;;;;;;15.93;43.72;99741.61;1578514;88;21979;-72
2021/09/04 10:51:46;;;;;;;1.00;0.90;;;;;;;15.95;43.88;99723.97;1599142;88;21036;-72
2021/09/04 10:54:43;;;;;;;2.35;0.88;;;;;;;15.99;44.15;99727.73;1624790;88;20972;-71
2021/09/04 10:57:18;;;;;;;2.62;1.00;;;;;;;16.10;44.41;99728.45;1611385;86;21071;-73
2021/09/04 11:00:11;;;;;;;2.20;0.80;;;;;;;16.20;44.04;99730.27;1646833;86;21130;-71
2021/09/04 11:03:00;;;;;;;1.87;0.95;;;;;;;16.22;43.99;99735.66;1646448;86;21089;-72
2021/09/04 11:05:52;;;;;;;0.80;0.80;;;;;;;16.28;44.01;99737.23;1649264;86;21052;-72
2021/09/04 11:08:38;;;;;;;0.98;0.95;;;;;;;16.36;44.02;99730.37;1651400;86;21103;-71
2021/09/04 11:11:30;;;;;;;2.00;1.20;;;;;;;16.48;43.12;99730.26;1620838;86;21607;-72
2021/09/04 11:14:16;;;;;;;1.55;1.25;;;;;;;16.55;43.01;99721.75;1624732;88;21063;-72
2021/09/04 11:16:47;;;;;;;1.10;0.93;;;;;;;16.55;42.52;99722.56;1625455;86;21249;-71
2021/09/04 11:19:22;;;;;;;2.35;1.22;;;;;;;16.47;42.83;99727.27;1622881;86;21110;-72
2021/09/04 11:22:11;;;;;;;3.58;1.32;;;;;;;16.43;42.68;99739.00;1674564;85;21591;-72
2021/09/04 11:24:43;;;;;;;1.20;0.90;;;;;;;16.53;42.11;99734.83;1656791;85;21059;-73
2021/09/04 11:27:19;;;;;;;1.50;1.12;;;;;;;16.64;42.06;99731.48;1682018;85;21042;-72
2021/09/04 11:29:49;;;;;;;4.67;1.17;;;;;;;16.69;42.00;99728.14;1681723;85;21082;-72
2021/09/04 11:32:18;;;;;;;1.22;0.70;;;;;;;16.74;41.33;99731.38;1681943;85;21561;-73
2021/09/04 11:34:50;;;;;;;1.62;1.12;;;;;;;16.68;41.37;99719.76;1681996;85;21265;-72
2021/09/04 11:37:23;;;;;;;1.40;0.90;;;;;;;16.64;41.60;99714.65;1671470;85;21105;-72
2021/09/04 11:39:53;;;;;;;0.78;0.78;;;;;;;16.75;41.57;99716.12;1666203;86;21524;-72
2021/09/04 11:42:23;;;;;;;1.20;0.82;;;;;;;16.82;40.63;99727.47;1666362;86;21039;-73